Terminal Aerodrome Forecast
Issued by NWS Medford, OR

Home | Current Version | Previous Version | Text Only | Print | Product List | Glossary On
Versions: 1 2 3 4 5 6 7 8 9 10 11 12
000
FTUS46 KMFR 011146
TAFMFR
TAF
KMFR 011146Z 0112/0212 32003KT P6SM BKN060 BKN150
     FM012100 30012KT P6SM VCSH BKN070
     FM020300 29006KT P6SM SCT070 BKN100=

USA.gov is the U.S. government's official web portal to all federal, state and local government web resources and services.